Time;durP1;ratioP1;P1;durP2;ratioP2;P2;SDS_P1;SDS_P2;PMS_P1;PMS_P2;Temp;Humidity;BMP_temperature;BMP_pressure;BME280_temperature;BME280_humidity;BME280_pressure;Samples;Min_cycle;Max_cycle;Signal;HPM_P1;HPM_P2
2022/12/31 00:01:02;;;;;;;6.30;1.70;;;;;;;-142.75;100.00;76174.66;4959618;28;20021;-68
2022/12/31 00:03:27;;;;;;;4.82;1.58;;;;;;;-142.75;100.00;76180.56;4957276;28;20025;-67
2022/12/31 00:05:53;;;;;;;4.38;1.52;;;;;;;-142.75;100.00;76174.66;4954879;28;20354;-67
2022/12/31 00:08:18;;;;;;;5.03;1.30;;;;;;;-142.75;100.00;76180.56;4949513;28;20490;-67
2022/12/31 00:10:44;;;;;;;9.38;1.65;;;;;;;-142.75;100.00;76176.63;4961665;28;20344;-68
2022/12/31 00:13:11;;;;;;;6.32;1.35;;;;;;;-142.75;100.00;76182.53;4946403;28;20446;-68
2022/12/31 00:15:38;;;;;;;4.32;1.27;;;;;;;-142.75;100.00;76178.59;4930815;28;20567;-67
2022/12/31 00:18:03;;;;;;;3.40;1.38;;;;;;;-142.75;100.00;76180.56;4950903;28;20021;-67
2022/12/31 00:20:29;;;;;;;4.18;1.63;;;;;;;-142.75;100.00;76192.38;4956286;28;20484;-66
2022/12/31 00:22:54;;;;;;;6.15;1.23;;;;;;;-142.75;100.00;76172.69;4951490;28;20061;-68
2022/12/31 00:25:20;;;;;;;;;;;;;;;-142.75;100.00;76172.69;4977669;28;20368;-68
2022/12/31 00:27:45;;;;;;;4.05;1.20;;;;;;;-142.75;100.00;76172.69;4948072;28;20221;-67
2022/12/31 00:30:11;;;;;;;9.45;2.88;;;;;;;-142.75;100.00;76180.56;4945522;28;20352;-68
2022/12/31 00:32:37;;;;;;;7.25;2.55;;;;;;;-142.75;100.00;76184.50;4948560;28;20036;-69
2022/12/31 00:35:03;;;;;;;4.82;1.52;;;;;;;-142.75;100.00;76184.50;4957372;28;20037;-68
2022/12/31 00:37:28;;;;;;;;;;;;;;;-142.75;100.00;76180.56;4954044;28;20404;-68
2022/12/31 00:39:53;;;;;;;3.65;1.27;;;;;;;-142.75;100.00;76178.59;4962887;28;20200;-67
2022/12/31 00:42:19;;;;;;;5.05;1.13;;;;;;;-142.75;100.00;76200.25;4955561;28;20353;-68
2022/12/31 00:44:45;;;;;;;7.22;1.65;;;;;;;-142.75;100.00;76200.25;4939346;28;20349;-68
2022/12/31 00:47:10;;;;;;;8.25;1.52;;;;;;;-142.75;100.00;76176.63;4947362;28;20181;-68
2022/12/31 00:49:36;;;;;;;3.03;1.48;;;;;;;-142.75;100.00;76184.50;4944682;28;20403;-68
2022/12/31 00:52:01;;;;;;;7.07;1.42;;;;;;;-142.75;100.00;76176.63;4963878;28;20548;-67
2022/12/31 00:54:26;;;;;;;;;;;;;;;-142.75;100.00;76172.69;4955588;28;20391;-68
2022/12/31 00:56:52;;;;;;;5.60;0.95;;;;;;;-142.75;100.00;76196.31;4959325;28;20246;-68
2022/12/31 00:59:17;;;;;;;3.45;0.82;;;;;;;-142.75;100.00;76196.31;4966763;28;20363;-68
2022/12/31 01:01:43;;;;;;;4.40;1.38;;;;;;;-142.75;100.00;76190.41;4962549;28;20348;-67
2022/12/31 01:04:10;;;;;;;;;;;;;;;-142.75;100.00;76174.66;4957178;28;20395;-67
2022/12/31 01:06:36;;;;;;;4.63;1.10;;;;;;;-142.75;100.00;76182.53;4935714;28;19940;-67
2022/12/31 01:09:02;;;;;;;7.78;1.20;;;;;;;-142.75;100.00;76188.44;4951130;28;20653;-67
2022/12/31 01:11:28;;;;;;;3.03;0.93;;;;;;;-142.75;100.00;76172.69;4959308;28;20014;-68
2022/12/31 01:13:55;;;;;;;;;;;;;;;-142.75;100.00;76172.69;4958996;28;20310;-68
2022/12/31 01:16:24;;;;;;;2.13;0.80;;;;;;;-142.75;100.00;76190.41;4956175;28;19923;-67
2022/12/31 01:18:50;;;;;;;3.47;0.77;;;;;;;-142.75;100.00;76188.44;4946350;28;20578;-67
2022/12/31 01:21:17;;;;;;;3.47;0.77;;;;;;;-142.75;100.00;76192.38;4959253;28;20017;-67
2022/12/31 01:23:43;;;;;;;4.70;0.98;;;;;;;-142.75;100.00;76196.31;4947399;28;20030;-68
2022/12/31 01:26:11;;;;;;;3.33;1.10;;;;;;;-142.75;100.00;76184.50;5009110;22;20347;-67
2022/12/31 01:28:37;;;;;;;4.35;0.95;;;;;;;-142.75;100.00;76204.16;4993347;28;20025;-66
2022/12/31 01:31:08;;;;;;;3.60;0.65;;;;;;;-142.75;100.00;76215.97;5000577;28;20042;-66
2022/12/31 01:33:34;;;;;;;4.50;1.23;;;;;;;-142.75;100.00;76215.97;4977370;28;20055;-67
2022/12/31 01:36:08;;;;;;;3.58;0.70;;;;;;;-142.75;100.00;76212.03;4992602;28;20358;-66
2022/12/31 01:38:35;;;;;;;3.67;0.55;;;;;;;-142.75;100.00;76231.72;5003101;28;20028;-66
2022/12/31 01:41:02;;;;;;;2.67;0.60;;;;;;;-142.75;100.00;76225.81;5003843;28;20016;-67
2022/12/31 01:43:46;;;;;;;9.10;0.85;;;;;;;-142.75;100.00;76231.72;5003349;28;20060;-66
2022/12/31 01:46:17;;;;;;;2.28;0.77;;;;;;;-142.75;100.00;76237.63;5002760;28;20024;-67
2022/12/31 01:48:48;;;;;;;4.80;0.52;;;;;;;-142.75;100.00;76235.66;5005187;28;20024;-66
2022/12/31 01:51:14;;;;;;;1.83;0.60;;;;;;;-142.75;100.00;76251.41;5003043;28;20020;-66
2022/12/31 01:53:40;;;;;;;4.43;0.60;;;;;;;-142.75;100.00;76223.84;4984306;28;20326;-67
2022/12/31 01:56:06;;;;;;;3.55;0.60;;;;;;;-142.75;100.00;76243.53;5002822;28;20028;-66
2022/12/31 01:58:43;;;;;;;3.92;1.00;;;;;;;-142.75;100.00;76235.66;4984271;28;20392;-66
2022/12/31 02:01:11;;;;;;;6.22;0.50;;;;;;;-142.75;100.00;76227.78;4984035;28;20024;-66
2022/12/31 02:03:37;;;;;;;3.80;0.82;;;;;;;-142.75;100.00;76235.66;5002363;28;20139;-67
2022/12/31 02:06:10;;;;;;;3.80;0.77;;;;;;;-142.75;100.00;76235.66;5004161;28;20328;-66
2022/12/31 02:08:36;;;;;;;6.20;0.55;;;;;;;-142.75;100.00;76233.69;5004194;28;20020;-67
2022/12/31 02:11:30;;;;;;;3.83;0.77;;;;;;;-142.75;100.00;76243.53;5004749;28;20097;-66
2022/12/31 02:14:00;;;;;;;7.93;0.68;;;;;;;-142.75;100.00;76237.63;4983891;28;20017;-67
2022/12/31 02:16:39;;;;;;;8.73;1.42;;;;;;;-142.75;100.00;76247.47;5003632;28;20016;-66
2022/12/31 02:19:19;;;;;;;8.05;0.85;;;;;;;-142.75;100.00;76235.66;5002960;28;20024;-66
2022/12/31 02:22:15;;;;;;;5.47;0.60;;;;;;;-142.75;100.00;76247.47;4996217;28;20569;-66
2022/12/31 02:24:43;;;;;;;7.20;1.27;;;;;;;-142.75;100.00;76265.19;5002012;28;20028;-66
2022/12/31 02:27:14;;;;;;;4.20;0.98;;;;;;;-142.75;100.00;76277.00;4983265;28;20044;-66
2022/12/31 02:30:07;;;;;;;2.92;0.75;;;;;;;-142.75;100.00;76273.06;5003382;28;20583;-66
2022/12/31 02:32:41;;;;;;;4.03;0.73;;;;;;;-142.75;100.00;76261.25;4999395;28;20581;-66
2022/12/31 02:35:28;;;;;;;1.77;0.50;;;;;;;-142.75;100.00;76282.91;5004089;28;20598;-67
2022/12/31 02:38:00;;;;;;;1.58;0.40;;;;;;;-142.75;100.00;76286.84;5004375;28;20548;-66
2022/12/31 02:40:26;;;;;;;7.13;1.23;;;;;;;-142.75;100.00;76296.69;5004197;28;20148;-66
2022/12/31 02:42:51;;;;;;;7.85;1.00;;;;;;;-142.75;100.00;76298.66;4985935;28;20021;-66
2022/12/31 02:45:21;;;;;;;6.53;0.80;;;;;;;-142.75;100.00;76298.66;5002112;28;20016;-66
2022/12/31 02:48:12;;;;;;;6.32;1.45;;;;;;;-142.75;100.00;76298.66;5004284;28;20549;-66
2022/12/31 02:50:56;;;;;;;5.72;0.80;;;;;;;-142.75;100.00;76302.59;5003006;28;20561;-67
2022/12/31 02:53:53;;;;;;;3.22;0.50;;;;;;;-142.75;100.00;76302.59;5004174;28;20606;-66
2022/12/31 02:56:34;;;;;;;7.95;0.63;;;;;;;-142.75;100.00;76302.59;5002111;28;20832;-66
2022/12/31 03:02:13;;;;;;;6.70;0.85;;;;;;;-142.75;100.00;76318.34;4999333;28;20397;-66
2022/12/31 03:04:41;;;;;;;5.95;0.68;;;;;;;-142.75;100.00;76324.25;5001852;28;20063;-67
2022/12/31 03:07:17;;;;;;;2.45;0.60;;;;;;;-142.75;100.00;76334.09;5003919;28;20131;-66
2022/12/31 03:09:42;;;;;;;7.93;0.50;;;;;;;-142.75;100.00;76328.19;4991990;28;20047;-67
2022/12/31 03:14:54;;;;;;;3.20;0.28;;;;;;;-142.75;100.00;76341.97;5001837;28;20208;-67
2022/12/31 03:17:19;;;;;;;3.38;0.40;;;;;;;-142.75;100.00;76345.91;4983396;28;20544;-67
2022/12/31 03:22:30;;;;;;;3.17;0.55;;;;;;;-142.75;100.00;76345.91;5001623;28;20047;-67
2022/12/31 03:27:56;;;;;;;2.20;0.50;;;;;;;-142.75;100.00;76345.91;4997802;28;20785;-67
2022/12/31 03:30:23;;;;;;;7.75;0.75;;;;;;;-142.75;100.00;76343.94;5002842;28;20020;-66
2022/12/31 03:32:49;;;;;;;3.10;1.33;;;;;;;-142.75;100.00;76334.09;5003692;28;20055;-66
2022/12/31 03:35:18;;;;;;;4.82;1.77;;;;;;;-142.75;100.00;76330.16;4995558;28;20587;-67
2022/12/31 03:37:43;;;;;;;6.40;1.60;;;;;;;-142.75;100.00;76330.16;5002441;28;20059;-67
2022/12/31 03:40:11;;;;;;;6.47;2.60;;;;;;;-142.75;100.00;76314.41;5001434;28;20303;-67
2022/12/31 03:42:36;;;;;;;6.80;1.85;;;;;;;-142.75;100.00;76330.16;4983663;28;20047;-67
2022/12/31 03:45:03;;;;;;;5.63;1.77;;;;;;;-142.75;100.00;76320.31;4986654;28;20471;-67
2022/12/31 03:47:29;;;;;;;5.35;1.95;;;;;;;-142.75;100.00;76310.47;5005459;28;20063;-68
2022/12/31 03:49:54;;;;;;;7.28;1.02;;;;;;;-142.75;100.00;76302.59;5007216;28;20326;-67
2022/12/31 03:52:20;;;;;;;3.45;0.52;;;;;;;-142.75;100.00;76324.25;5005623;28;20308;-68
2022/12/31 03:54:46;;;;;;;6.28;0.60;;;;;;;-142.75;100.00;76326.22;4986690;28;20350;-67
2022/12/31 03:57:11;;;;;;;2.90;0.82;;;;;;;-142.75;100.00;76345.91;5006389;28;20233;-67
2022/12/31 03:59:37;;;;;;;5.10;0.50;;;;;;;-142.75;100.00;76347.84;5005002;28;20034;-66
2022/12/31 04:02:03;;;;;;;2.70;0.73;;;;;;;-142.75;100.00;76361.63;5005596;28;20327;-67
2022/12/31 04:04:29;;;;;;;4.32;0.60;;;;;;;-142.75;100.00;76355.72;5006826;28;20051;-67
2022/12/31 04:06:54;;;;;;;2.63;0.65;;;;;;;-142.75;100.00;76373.44;5005178;28;20346;-67
2022/12/31 04:09:20;;;;;;;5.72;0.50;;;;;;;-142.75;100.00;76377.38;5005854;28;20455;-66
2022/12/31 04:11:45;;;;;;;7.78;0.98;;;;;;;-142.75;100.00;76383.28;5007096;28;20198;-66
2022/12/31 04:14:11;;;;;;;6.55;0.80;;;;;;;-142.75;100.00;76393.13;5005230;28;20420;-67
2022/12/31 04:16:37;;;;;;;1.90;0.45;;;;;;;-142.75;100.00;76393.13;5004140;28;20392;-68
2022/12/31 04:19:02;;;;;;;3.65;0.60;;;;;;;-142.75;100.00;76406.91;4988115;28;20062;-68
2022/12/31 04:21:28;;;;;;;6.47;1.30;;;;;;;-142.75;100.00;76404.94;5005568;28;20374;-67
2022/12/31 04:23:54;;;;;;;2.95;0.93;;;;;;;-142.75;100.00;76397.06;5006608;28;20029;-68
2022/12/31 04:26:19;;;;;;;6.20;1.00;;;;;;;-142.75;100.00;76393.13;5005443;28;20472;-67
2022/12/31 04:28:45;;;;;;;1.45;0.77;;;;;;;-142.75;100.00;76383.28;5005328;28;20515;-67
2022/12/31 04:31:10;;;;;;;2.65;0.98;;;;;;;-142.75;100.00;76381.31;5005426;28;20377;-67
2022/12/31 04:33:36;;;;;;;2.22;1.05;;;;;;;-142.75;100.00;76373.44;5006663;28;20326;-68
2022/12/31 04:36:03;;;;;;;5.05;1.40;;;;;;;-142.75;100.00;76371.47;4985734;28;20330;-68
2022/12/31 04:38:28;;;;;;;4.28;1.77;;;;;;;-142.75;100.00;76365.56;5004789;28;20036;-68
2022/12/31 04:43:39;;;;;;;3.08;1.80;;;;;;;-142.75;100.00;76369.50;5004153;28;20356;-67
2022/12/31 04:46:05;;;;;;;4.97;2.10;;;;;;;-142.75;100.00;76357.69;5006268;28;20560;-68
2022/12/31 04:48:31;;;;;;;4.78;2.10;;;;;;;-142.75;100.00;76338.03;5005480;28;20628;-67
2022/12/31 04:50:57;;;;;;;3.85;2.00;;;;;;;-142.75;100.00;76345.91;4986264;28;20055;-68
2022/12/31 04:53:23;;;;;;;2.90;1.55;;;;;;;-142.75;100.00;76338.03;4993608;28;20332;-68
2022/12/31 04:55:49;;;;;;;3.42;1.30;;;;;;;-142.75;100.00;76345.91;5003152;28;20044;-68
2022/12/31 04:58:14;;;;;;;4.50;1.38;;;;;;;-142.75;100.00;76318.34;5004354;28;20254;-68
2022/12/31 05:00:40;;;;;;;2.38;1.10;;;;;;;-142.75;100.00;76316.38;5004201;28;20279;-68
2022/12/31 05:03:05;;;;;;;3.10;0.90;;;;;;;-142.75;100.00;76316.38;5003537;28;20420;-68
2022/12/31 05:05:31;;;;;;;2.00;0.80;;;;;;;-142.75;100.00;76306.53;5005849;28;20362;-68
2022/12/31 05:07:56;;;;;;;1.88;0.70;;;;;;;-142.75;100.00;76302.59;5005744;28;20334;-67
2022/12/31 05:10:22;;;;;;;1.50;0.40;;;;;;;-142.75;100.00;76288.81;5003899;28;20025;-68
2022/12/31 05:12:48;;;;;;;0.85;0.35;;;;;;;-142.75;100.00;76296.69;5004387;28;20326;-67
2022/12/31 05:15:13;;;;;;;1.65;0.50;;;;;;;-142.75;100.00;76282.91;5003573;28;20295;-68
2022/12/31 05:17:39;;;;;;;0.90;0.43;;;;;;;-142.75;100.00;76275.03;5003796;28;20549;-68
2022/12/31 05:20:05;;;;;;;0.85;0.25;;;;;;;-142.75;100.00;76267.16;5003478;28;20338;-68
2022/12/31 05:22:31;;;;;;;0.55;0.25;;;;;;;-142.75;100.00;76263.22;5005232;28;20135;-67
2022/12/31 05:24:57;;;;;;;1.30;0.40;;;;;;;-142.75;100.00;76247.47;5004033;28;20338;-67
2022/12/31 05:27:23;;;;;;;0.50;0.20;;;;;;;-142.75;100.00;76249.44;5003388;28;20541;-68
2022/12/31 05:29:48;;;;;;;1.25;0.30;;;;;;;-142.75;100.00;76249.44;5003414;28;20067;-67
2022/12/31 05:32:14;;;;;;;0.63;0.30;;;;;;;-142.75;100.00;76241.56;5003688;28;20358;-68
2022/12/31 05:34:39;;;;;;;0.80;0.30;;;;;;;-142.75;100.00;76235.66;5003079;28;20366;-67
2022/12/31 05:37:05;;;;;;;0.60;0.28;;;;;;;-142.75;100.00;76233.69;5004246;28;20020;-68
2022/12/31 05:39:30;;;;;;;0.88;0.40;;;;;;;-142.75;100.00;76227.78;5005354;28;20342;-67
2022/12/31 05:41:56;;;;;;;0.65;0.20;;;;;;;-142.75;100.00;76239.59;4984337;28;20020;-68
2022/12/31 05:44:21;;;;;;;0.82;0.32;;;;;;;-142.75;100.00;76233.69;5002639;28;20388;-68
2022/12/31 05:46:47;;;;;;;1.65;0.40;;;;;;;-142.75;100.00;76227.78;5003433;28;20384;-68
2022/12/31 05:49:12;;;;;;;0.65;0.28;;;;;;;-142.75;100.00;76219.91;5003306;28;20337;-68
2022/12/31 05:51:38;;;;;;;0.55;0.30;;;;;;;-142.75;100.00;76229.75;5003257;28;20186;-67
2022/12/31 05:54:03;;;;;;;1.30;0.38;;;;;;;-142.75;100.00;76223.84;5005141;28;20311;-67
2022/12/31 05:56:29;;;;;;;1.05;0.32;;;;;;;-142.75;100.00;76221.88;5002472;28;20421;-67
2022/12/31 05:58:54;;;;;;;1.65;0.80;;;;;;;-142.75;100.00;76229.75;5003635;28;20346;-67
2022/12/31 06:01:20;;;;;;;2.25;0.65;;;;;;;-142.75;100.00;76221.88;5004710;28;20334;-68
2022/12/31 06:03:46;;;;;;;2.15;0.80;;;;;;;-142.75;100.00;76219.91;5003921;28;20028;-68
2022/12/31 06:06:11;;;;;;;2.45;0.98;;;;;;;-142.75;100.00;76225.81;5003056;28;20051;-68
2022/12/31 06:08:37;;;;;;;2.72;1.30;;;;;;;-142.75;100.00;76235.66;4983728;28;20183;-68
2022/12/31 06:11:03;;;;;;;2.85;1.55;;;;;;;-142.75;100.00;76225.81;5002489;28;20358;-68
2022/12/31 06:13:28;;;;;;;2.95;1.63;;;;;;;-142.75;100.00;76231.72;5002387;28;20461;-68
2022/12/31 06:15:54;;;;;;;4.78;1.73;;;;;;;-142.75;100.00;76223.84;5004648;28;20107;-67
2022/12/31 06:18:19;;;;;;;;;;;;;;;-142.75;100.00;76202.19;5004383;28;20380;-67
2022/12/31 06:20:44;;;;;;;3.35;1.80;;;;;;;-142.75;100.00;76214.00;5001724;28;20285;-69
2022/12/31 06:23:10;;;;;;;6.40;2.13;;;;;;;-142.75;100.00;76200.25;5003769;28;20439;-68
2022/12/31 06:25:36;;;;;;;3.75;1.92;;;;;;;-142.75;100.00;76194.34;5002626;28;20349;-67
2022/12/31 06:28:03;;;;;;;;;;;;;;;-142.75;100.00;76170.72;5003346;28;20024;-67
2022/12/31 06:30:28;;;;;;;3.45;1.85;;;;;;;-142.75;100.00;76172.69;5002020;28;19912;-68
2022/12/31 06:32:54;;;;;;;;;;;;;;;-142.75;100.00;76162.84;5002600;28;20433;-67
2022/12/31 06:35:19;;;;;;;2.70;1.40;;;;;;;-142.75;100.00;76154.97;5001955;28;20369;-67
2022/12/31 06:37:45;;;;;;;2.72;1.23;;;;;;;-142.75;100.00;76141.19;5004468;28;20345;-68
2022/12/31 06:40:11;;;;;;;2.60;1.30;;;;;;;-142.75;100.00;76141.19;5004149;28;20361;-68
2022/12/31 06:42:37;;;;;;;2.92;1.25;;;;;;;-142.75;100.00;76131.34;5002180;28;20016;-67
2022/12/31 06:45:03;;;;;;;2.13;0.90;;;;;;;-142.75;100.00;76121.50;5004522;28;20376;-67
2022/12/31 06:47:29;;;;;;;1.77;0.60;;;;;;;-142.75;100.00;76113.63;5001198;28;20048;-67
2022/12/31 06:49:55;;;;;;;1.17;0.55;;;;;;;-142.75;100.00;76123.47;5002583;28;20290;-68
2022/12/31 06:52:20;;;;;;;;;;;;;;;-142.75;100.00;76109.69;5002041;28;20323;-67
2022/12/31 06:54:46;;;;;;;0.95;0.45;;;;;;;-142.75;100.00;76113.63;5002222;28;20210;-68
2022/12/31 06:57:12;;;;;;;1.08;0.50;;;;;;;-142.75;100.00;76097.88;5002829;28;20322;-67
2022/12/31 06:59:38;;;;;;;1.75;0.73;;;;;;;-142.75;100.00;76093.94;5002817;28;20342;-68
2022/12/31 07:02:20;;;;;;;0.93;0.30;;;;;;;-142.75;100.00;76093.94;5003662;28;20400;-68
2022/12/31 07:05:07;;;;;;;1.30;0.47;;;;;;;-142.75;100.00;76090.00;5003339;28;20020;-67
2022/12/31 07:07:37;;;;;;;2.38;0.52;;;;;;;-142.75;100.00;76097.88;4983128;28;20639;-67
2022/12/31 07:10:21;;;;;;;1.63;0.30;;;;;;;-142.75;100.00;76097.88;5002529;28;20059;-68
2022/12/31 07:13:34;;;;;;;1.33;0.17;;;;;;;-142.75;100.00;76086.06;5002150;28;20098;-67
2022/12/31 07:16:20;;;;;;;2.13;0.30;;;;;;;-142.75;100.00;76091.97;4940507;28;20044;-67
2022/12/31 07:18:48;;;;;;;0.80;0.30;;;;;;;-142.75;100.00;76093.94;5003761;28;20028;-68
2022/12/31 07:21:17;;;;;;;0.73;0.30;;;;;;;-142.75;100.00;76093.94;5005547;28;20029;-68
2022/12/31 07:23:43;;;;;;;2.05;0.40;;;;;;;-142.75;100.00;76091.97;4987515;28;20047;-68
2022/12/31 07:26:43;;;;;;;0.82;0.40;;;;;;;-142.75;100.00;76090.00;5012988;22;20016;-64
2022/12/31 07:29:36;;;;;;;1.85;0.70;;;;;;;-142.75;100.00;76070.34;4981532;28;20060;-64
2022/12/31 07:32:19;;;;;;;1.90;0.95;;;;;;;-142.75;100.00;76076.22;4975982;28;20568;-64
2022/12/31 07:34:50;;;;;;;2.72;1.30;;;;;;;-142.75;100.00;76082.13;4973229;28;20143;-64
2022/12/31 07:37:51;;;;;;;2.80;1.00;;;;;;;-142.75;100.00;76078.19;4972010;28;20025;-64
2022/12/31 07:40:28;;;;;;;2.05;1.02;;;;;;;-142.75;100.00;76074.25;4984729;28;20052;-64
2022/12/31 07:43:06;;;;;;;3.13;0.80;;;;;;;-142.75;100.00;76072.31;4984732;28;20619;-64
2022/12/31 07:45:40;;;;;;;3.30;0.68;;;;;;;-142.75;100.00;76064.44;4967034;28;20028;-64
2022/12/31 07:48:26;;;;;;;3.55;1.17;;;;;;;-142.75;100.00;76070.34;4981302;28;20033;-64
2022/12/31 07:50:53;;;;;;;3.80;0.90;;;;;;;-142.75;100.00;76088.03;4987177;28;20565;-64
2022/12/31 07:53:20;;;;;;;2.22;0.95;;;;;;;-142.75;100.00;76097.88;4984803;28;20036;-64
2022/12/31 07:55:45;;;;;;;3.33;0.60;;;;;;;-142.75;100.00;76095.91;4970392;28;20191;-64
2022/12/31 07:58:21;;;;;;;1.35;0.68;;;;;;;-142.75;100.00;76101.81;4984841;28;20025;-64
2022/12/31 08:00:48;;;;;;;3.58;0.50;;;;;;;-142.75;100.00;76115.59;4984707;28;20055;-64
2022/12/31 08:03:51;;;;;;;0.90;0.40;;;;;;;-142.75;100.00;76125.44;4966516;28;20827;-64
2022/12/31 08:06:38;;;;;;;2.20;0.50;;;;;;;-142.75;100.00;76117.56;4966128;28;20133;-64
2022/12/31 08:09:16;;;;;;;;;;;;;;;-142.75;100.00;76125.44;4966701;28;20029;-65
2022/12/31 08:11:52;;;;;;;3.88;0.40;;;;;;;-142.75;100.00;76141.19;4966032;28;19921;-64
2022/12/31 08:14:18;;;;;;;1.45;0.40;;;;;;;-142.75;100.00;76145.13;4966130;28;20055;-64
2022/12/31 08:16:44;;;;;;;2.55;0.40;;;;;;;-142.75;100.00;76145.13;4984283;28;20087;-64
2022/12/31 08:19:24;;;;;;;5.00;0.45;;;;;;;-142.75;100.00;76147.09;4984030;28;20421;-64
2022/12/31 08:21:56;;;;;;;3.90;0.40;;;;;;;-142.75;100.00;76149.06;4983818;28;20017;-64
2022/12/31 08:24:28;;;;;;;5.70;0.80;;;;;;;-142.75;100.00;76160.88;4983884;28;20668;-65
2022/12/31 08:27:23;;;;;;;5.45;0.93;;;;;;;-142.75;100.00;76170.72;4967161;28;20107;-64
2022/12/31 08:30:08;;;;;;;4.15;1.42;;;;;;;-142.75;100.00;76180.56;4964641;28;20886;-64
2022/12/31 08:32:48;;;;;;;7.45;0.70;;;;;;;-142.75;100.00;76174.66;4976868;28;20056;-64
2022/12/31 08:35:13;;;;;;;7.07;1.20;;;;;;;-142.75;100.00;76190.41;4983966;28;20033;-64
2022/12/31 08:37:50;;;;;;;5.88;0.77;;;;;;;-142.75;100.00;76186.47;4983743;28;20324;-64
2022/12/31 08:40:27;;;;;;;5.55;0.75;;;;;;;-142.75;100.00;76188.44;4984521;28;20687;-64
2022/12/31 08:43:11;;;;;;;9.15;0.90;;;;;;;-142.75;100.00;76188.44;4965758;28;20025;-64
2022/12/31 08:45:41;;;;;;;13.10;1.10;;;;;;;-142.75;100.00;76184.50;4965765;28;20036;-64
2022/12/31 08:48:25;;;;;;;5.50;1.17;;;;;;;-142.75;100.00;76180.56;4983488;28;20032;-64
2022/12/31 08:50:51;;;;;;;4.70;1.02;;;;;;;-142.75;100.00;76184.50;4984573;28;20029;-65
2022/12/31 08:53:17;;;;;;;6.93;1.75;;;;;;;-142.75;100.00;76196.31;4983135;28;20381;-64
2022/12/31 08:55:44;;;;;;;2.30;1.08;;;;;;;-142.75;100.00;76180.56;4982992;28;20342;-64
2022/12/31 08:58:28;;;;;;;7.43;1.25;;;;;;;-142.75;100.00;76184.50;4984756;28;20104;-64
2022/12/31 09:00:57;;;;;;;4.32;1.08;;;;;;;-142.75;100.00;76180.56;4966111;28;20017;-64
2022/12/31 09:03:40;;;;;;;3.75;1.08;;;;;;;-142.75;100.00;76170.72;4965996;28;20036;-64
2022/12/31 09:06:29;;;;;;;3.38;0.75;;;;;;;-142.75;100.00;76176.63;4965020;28;20025;-64
2022/12/31 09:09:05;;;;;;;11.35;1.92;;;;;;;-142.75;100.00;76168.75;4964335;28;20565;-64
2022/12/31 09:12:02;;;;;;;2.55;1.13;;;;;;;-142.75;100.00;76170.72;4983468;28;20573;-64
2022/12/31 09:14:27;;;;;;;10.93;1.00;;;;;;;-142.75;100.00;76172.69;4983100;28;20056;-64
2022/12/31 09:17:11;;;;;;;3.47;0.80;;;;;;;-142.75;100.00;76147.09;4965012;28;20375;-64
2022/12/31 09:19:37;;;;;;;4.85;1.20;;;;;;;-142.75;100.00;76162.84;4983203;28;20025;-65
2022/12/31 09:22:02;;;;;;;4.68;1.15;;;;;;;-142.75;100.00;76158.91;4964886;28;20429;-64
2022/12/31 09:24:28;;;;;;;3.63;1.13;;;;;;;-142.75;100.00;76154.97;4983761;28;20339;-64
2022/12/31 09:26:59;;;;;;;8.20;1.52;;;;;;;-142.75;100.00;76151.03;4982703;28;20373;-63
2022/12/31 09:30:05;;;;;;;2.63;0.90;;;;;;;-142.75;100.00;76149.06;4982926;28;20056;-64
2022/12/31 09:32:39;;;;;;;6.10;1.55;;;;;;;-142.75;100.00;76154.97;4973475;28;20661;-64
2022/12/31 09:35:10;;;;;;;8.40;1.67;;;;;;;-142.75;100.00;76180.56;4964221;28;20537;-64
2022/12/31 09:37:49;;;;;;;3.38;1.00;;;;;;;-142.75;100.00;76156.94;4983258;28;20020;-64
2022/12/31 09:40:38;;;;;;;2.58;0.85;;;;;;;-142.75;100.00;76149.06;4983273;28;20021;-64
2022/12/31 09:43:18;;;;;;;3.28;1.20;;;;;;;-142.75;100.00;76151.03;4978452;28;20573;-64
2022/12/31 09:46:28;;;;;;;5.18;0.85;;;;;;;-142.75;100.00;76131.34;4983049;28;20029;-64
2022/12/31 09:49:31;;;;;;;5.07;0.77;;;;;;;-142.75;100.00;76109.69;4979407;28;20573;-64
2022/12/31 09:52:20;;;;;;;4.00;1.08;;;;;;;-142.75;100.00;76111.66;4982517;28;20114;-63
2022/12/31 09:55:23;;;;;;;3.47;1.05;;;;;;;-142.75;100.00;76111.66;4982171;28;20466;-64
2022/12/31 09:58:31;;;;;;;4.32;0.80;;;;;;;-142.75;100.00;76103.78;4972503;28;20155;-64
2022/12/31 10:01:18;;;;;;;;;;;;;;;-142.75;100.00;76123.47;4982762;28;20054;-64
2022/12/31 10:03:56;;;;;;;5.43;0.97;;;;;;;-142.75;100.00;76109.69;4981996;28;19917;-64
2022/12/31 10:06:58;;;;;;;4.15;1.00;;;;;;;-142.75;100.00;76107.72;4963978;28;20549;-64
2022/12/31 10:09:56;;;;;;;4.32;1.02;;;;;;;-142.75;100.00;76111.66;4983338;28;20530;-64
2022/12/31 10:12:36;;;;;;;5.72;1.55;;;;;;;-142.75;100.00;76113.63;4937515;28;20048;-64
2022/12/31 10:15:38;;;;;;;4.13;0.95;;;;;;;-142.75;100.00;76121.50;4970442;28;20025;-64
2022/12/31 10:18:12;;;;;;;3.53;1.13;;;;;;;-142.75;100.00;76115.59;4975576;28;20021;-65
2022/12/31 10:20:59;;;;;;;6.03;1.02;;;;;;;-142.75;100.00;76107.72;5037135;28;20040;-64
2022/12/31 10:23:58;;;;;;;5.18;1.30;;;;;;;-142.75;100.00;76117.56;5040401;28;20043;-65
2022/12/31 10:26:42;;;;;;;2.65;1.02;;;;;;;-142.75;100.00;76101.81;5039543;28;20107;-64
2022/12/31 10:29:27;;;;;;;5.43;1.42;;;;;;;-142.75;100.00;76097.88;5022943;28;20066;-67
2022/12/31 10:32:15;;;;;;;5.85;1.50;;;;;;;-142.75;100.00;76121.50;5040214;28;20162;-64
2022/12/31 10:35:12;;;;;;;5.28;1.67;;;;;;;-142.75;100.00;76113.63;5039580;28;20880;-65
2022/12/31 10:38:04;;;;;;;4.00;1.90;;;;;;;-142.75;100.00;76119.53;4991260;28;20033;-63
2022/12/31 10:40:49;;;;;;;5.20;2.08;;;;;;;-142.75;100.00;76109.69;4971284;28;20068;-65
2022/12/31 10:43:43;;;;;;;5.65;2.15;;;;;;;-142.75;100.00;76125.44;4971744;28;20037;-66
2022/12/31 10:46:18;;;;;;;6.40;2.05;;;;;;;-142.75;100.00;76115.59;4981351;28;20534;-64
2022/12/31 10:49:15;;;;;;;10.27;2.55;;;;;;;-142.75;100.00;76099.84;4986182;28;20105;-66
2022/12/31 10:51:40;;;;;;;5.72;1.90;;;;;;;-142.75;100.00;76121.50;4992544;28;20033;-65
2022/12/31 10:54:18;;;;;;;6.75;1.80;;;;;;;-142.75;100.00;76117.56;4980221;28;20475;-63
2022/12/31 10:57:06;;;;;;;4.72;1.35;;;;;;;-142.75;100.00;76093.94;4970481;28;20568;-64
2022/12/31 10:59:34;;;;;;;4.85;1.60;;;;;;;-142.75;100.00;76109.69;4980986;28;20033;-65
2022/12/31 11:02:37;;;;;;;3.83;1.15;;;;;;;-142.75;100.00;76111.66;4981384;28;20636;-65
2022/12/31 11:05:28;;;;;;;6.13;1.35;;;;;;;-142.75;100.00;76097.88;4975024;28;20155;-65
2022/12/31 11:08:05;;;;;;;7.97;1.00;;;;;;;-142.75;100.00;76109.69;4981446;28;20032;-64
2022/12/31 11:10:33;;;;;;;2.80;1.17;;;;;;;-142.75;100.00;76105.75;4969672;28;20024;-65
2022/12/31 11:13:17;;;;;;;1.63;0.73;;;;;;;-142.75;100.00;76086.06;4963560;28;20060;-65
2022/12/31 11:16:02;;;;;;;3.80;1.67;;;;;;;-142.75;100.00;76066.41;4965665;28;20069;-64
2022/12/31 11:18:32;;;;;;;5.43;1.83;;;;;;;-142.75;100.00;76060.50;4982473;28;20538;-64
2022/12/31 11:21:12;;;;;;;8.45;2.10;;;;;;;-142.75;100.00;76060.50;4971504;28;20191;-64
2022/12/31 11:23:52;;;;;;;11.02;2.47;;;;;;;-142.75;100.00;76088.03;4981828;28;20127;-63
2022/12/31 11:26:36;;;;;;;9.10;2.97;;;;;;;-142.75;100.00;76080.16;4963059;28;20064;-64
2022/12/31 11:29:07;;;;;;;5.53;2.63;;;;;;;-142.75;100.00;76091.97;4957367;28;20600;-65
2022/12/31 11:32:14;;;;;;;7.95;2.33;;;;;;;-142.75;100.00;76064.44;4977147;28;20596;-65
2022/12/31 11:34:51;;;;;;;9.20;2.42;;;;;;;-142.75;100.00;76068.38;4966189;28;20628;-63
2022/12/31 11:37:47;;;;;;;5.63;2.00;;;;;;;-142.75;100.00;76062.47;4981695;28;20025;-64
2022/12/31 11:40:35;;;;;;;8.70;2.30;;;;;;;-142.75;100.00;76052.63;4981007;28;20029;-63
2022/12/31 11:43:20;;;;;;;5.60;1.67;;;;;;;-142.75;100.00;76046.72;4983405;28;20084;-63
2022/12/31 11:45:57;;;;;;;6.15;2.03;;;;;;;-142.75;100.00;76062.47;4980905;28;20546;-63
2022/12/31 11:48:42;;;;;;;9.15;1.90;;;;;;;-142.75;100.00;76050.66;4963264;28;20037;-65
2022/12/31 11:51:20;;;;;;;10.15;1.90;;;;;;;-142.75;100.00;76050.66;4980860;28;20049;-64
2022/12/31 11:54:43;;;;;;;7.10;1.65;;;;;;;-142.75;100.00;76044.75;4980113;28;20564;-64